createdAt,value
2022-07-27T00:01:40.475Z,52.65
2022-07-27T00:04:17.004Z,52.94
2022-07-27T00:06:44.476Z,52.84
2022-07-27T00:09:11.825Z,53.13
2022-07-27T00:11:38.789Z,53.51
2022-07-27T00:14:05.500Z,53.86
2022-07-27T00:16:32.150Z,54.04
2022-07-27T00:18:58.848Z,54.43
2022-07-27T00:21:26.736Z,54.39
2022-07-27T00:23:54.558Z,54.54
2022-07-27T00:26:21.398Z,54.91
2022-07-27T00:28:48.885Z,54.76
2022-07-27T00:31:16.779Z,54.63
2022-07-27T00:33:43.484Z,54.89
2022-07-27T00:36:10.208Z,55.06
2022-07-27T00:38:36.870Z,54.67
2022-07-27T00:41:04.305Z,54.75
2022-07-27T00:43:30.921Z,54.32
2022-07-27T00:45:57.621Z,54.61
2022-07-27T00:48:25.103Z,54.60
2022-07-27T00:50:55.482Z,54.66
2022-07-27T00:53:22.133Z,54.97
2022-07-27T00:55:48.905Z,54.79
2022-07-27T00:58:16.977Z,54.91
2022-07-27T01:00:44.573Z,54.94
2022-07-27T01:03:11.217Z,55.20
2022-07-27T01:05:42.601Z,55.42
2022-07-27T01:08:12.735Z,55.82
2022-07-27T01:10:40.923Z,56.05
2022-07-27T01:13:12.930Z,56.31
2022-07-27T01:15:41.135Z,56.69
2022-07-27T01:18:27.030Z,56.62
2022-07-27T01:20:54.223Z,57.31
2022-07-27T01:23:20.833Z,57.22
2022-07-27T01:25:47.645Z,57.36
2022-07-27T01:28:14.263Z,57.32
2022-07-27T01:30:40.821Z,57.60
2022-07-27T01:33:09.090Z,57.51
2022-07-27T01:35:37.333Z,57.65
2022-07-27T01:38:04.866Z,57.48
2022-07-27T01:40:31.923Z,57.43
2022-07-27T01:42:58.527Z,57.26
2022-07-27T01:45:25.417Z,57.18
2022-07-27T01:47:51.996Z,57.20
2022-07-27T01:50:18.620Z,57.33
2022-07-27T01:52:45.269Z,57.18
2022-07-27T01:55:11.885Z,57.10
2022-07-27T01:57:39.064Z,56.96
2022-07-27T02:00:09.500Z,57.03
2022-07-27T02:02:39.919Z,56.82
2022-07-27T02:05:07.768Z,56.76
2022-07-27T02:07:34.418Z,56.69
2022-07-27T02:10:01.002Z,56.62
2022-07-27T02:12:36.196Z,56.61
2022-07-27T02:15:15.430Z,56.74
2022-07-27T02:17:44.086Z,56.64
2022-07-27T02:20:13.321Z,56.75
2022-07-27T02:22:40.108Z,56.68
2022-07-27T02:25:08.491Z,57.08
2022-07-27T02:27:35.393Z,57.17
2022-07-27T02:30:02.479Z,57.69
2022-07-27T02:32:29.231Z,57.34
2022-07-27T02:34:55.912Z,57.47
2022-07-27T02:37:22.623Z,57.48
2022-07-27T02:39:49.575Z,57.18
2022-07-27T02:42:16.421Z,57.06
2022-07-27T02:44:42.980Z,57.40
2022-07-27T02:47:09.605Z,57.41
2022-07-27T02:49:36.418Z,57.24
2022-07-27T02:52:04.503Z,57.34
2022-07-27T02:54:32.512Z,57.45
2022-07-27T02:57:02.777Z,57.60
2022-07-27T02:59:29.346Z,57.35
2022-07-27T03:01:55.980Z,57.53
2022-07-27T03:04:23.198Z,57.44
2022-07-27T03:06:49.810Z,57.59
2022-07-27T03:09:16.773Z,57.60
2022-07-27T03:11:43.420Z,57.99
2022-07-27T03:14:10.075Z,58.39
2022-07-27T03:16:36.863Z,58.30
2022-07-27T03:19:03.714Z,58.90
2022-07-27T03:21:30.305Z,58.54
2022-07-27T03:23:56.914Z,58.81
2022-07-27T03:26:23.664Z,58.88
2022-07-27T03:28:50.641Z,59.20
2022-07-27T03:31:17.343Z,59.66
2022-07-27T03:33:44.029Z,59.64
2022-07-27T03:36:10.634Z,59.71
2022-07-27T03:38:37.258Z,59.73
2022-07-27T03:41:03.991Z,60.24
2022-07-27T03:43:30.593Z,59.86
2022-07-27T03:45:57.264Z,60.07
2022-07-27T03:48:23.929Z,60.23
2022-07-27T03:50:50.618Z,60.04
2022-07-27T03:53:17.808Z,60.09
2022-07-27T03:55:44.869Z,60.28
2022-07-27T03:58:11.496Z,60.46
2022-07-27T04:00:38.103Z,60.33
2022-07-27T04:03:04.867Z,60.27
2022-07-27T04:05:31.620Z,60.30
2022-07-27T04:07:58.406Z,60.64
2022-07-27T04:10:27.700Z,60.71
2022-07-27T04:12:58.651Z,60.59
2022-07-27T04:15:26.361Z,60.64
2022-07-27T04:17:57.017Z,60.80
2022-07-27T04:20:24.448Z,60.78
2022-07-27T04:22:51.102Z,60.67
2022-07-27T04:25:17.711Z,60.62
2022-07-27T04:27:44.341Z,60.84
2022-07-27T04:30:11.408Z,60.86
2022-07-27T04:32:38.202Z,61.01
2022-07-27T04:35:06.009Z,60.70
2022-07-27T04:37:33.534Z,60.55
2022-07-27T04:40:00.952Z,60.61
2022-07-27T04:42:28.554Z,60.49
2022-07-27T04:44:55.344Z,60.51
2022-07-27T04:47:21.986Z,60.26
2022-07-27T04:49:48.677Z,60.07
2022-07-27T04:52:16.697Z,59.90
2022-07-27T04:54:43.765Z,60.28
2022-07-27T04:57:10.402Z,60.25
2022-07-27T04:59:37.218Z,60.10
2022-07-27T05:02:04.206Z,60.11
2022-07-27T05:04:30.966Z,60.18
2022-07-27T05:06:57.854Z,60.17
2022-07-27T05:09:24.532Z,60.31
2022-07-27T05:11:52.169Z,60.43
2022-07-27T05:14:21.232Z,60.10
2022-07-27T05:16:48.747Z,60.46
2022-07-27T05:19:15.647Z,60.48
2022-07-27T05:21:42.897Z,60.72
2022-07-27T05:24:10.158Z,60.76
2022-07-27T05:26:37.317Z,60.48
2022-07-27T05:29:03.956Z,60.50
2022-07-27T05:31:30.702Z,60.53
2022-07-27T05:33:58.355Z,60.65
2022-07-27T05:36:25.695Z,60.83
2022-07-27T05:38:52.357Z,60.75
2022-07-27T05:41:25.709Z,60.89
2022-07-27T05:43:54.510Z,60.88
2022-07-27T05:46:22.162Z,60.58
2022-07-27T05:48:49.565Z,60.91
2022-07-27T05:51:16.262Z,61.32
2022-07-27T05:53:42.916Z,61.32
2022-07-27T05:56:09.738Z,61.34
2022-07-27T05:58:36.416Z,61.32
2022-07-27T06:01:03.482Z,61.20
2022-07-27T06:03:30.301Z,60.71
2022-07-27T06:06:17.066Z,60.52
2022-07-27T06:08:44.732Z,60.67
2022-07-27T06:11:11.534Z,60.71
2022-07-27T06:13:41.981Z,60.73
2022-07-27T06:16:09.665Z,60.28
2022-07-27T06:18:36.517Z,60.10
2022-07-27T06:21:04.625Z,60.12
2022-07-27T06:23:31.438Z,60.01
2022-07-27T06:25:58.107Z,59.82
2022-07-27T06:28:24.785Z,60.06
2022-07-27T06:30:53.523Z,60.06
2022-07-27T06:33:28.355Z,59.48
2022-07-27T06:35:56.682Z,59.25
2022-07-27T06:38:24.608Z,58.98
2022-07-27T06:40:55.059Z,59.10
2022-07-27T06:43:23.489Z,59.22
2022-07-27T06:45:50.201Z,58.80
2022-07-27T06:48:17.231Z,58.85
2022-07-27T06:50:44.308Z,58.71
2022-07-27T06:53:11.078Z,58.52
2022-07-27T06:55:37.678Z,58.31
2022-07-27T06:58:05.210Z,58.32
2022-07-27T07:00:31.869Z,58.25
2022-07-27T07:03:01.355Z,58.23
2022-07-27T07:05:28.087Z,58.13
2022-07-27T07:07:55.563Z,58.18
2022-07-27T07:10:24.113Z,57.82
2022-07-27T07:12:55.571Z,57.31
2022-07-27T07:15:24.962Z,57.08
2022-07-27T07:17:52.455Z,57.29
2022-07-27T07:20:19.269Z,57.00
2022-07-27T07:22:45.934Z,56.43
2022-07-27T07:25:12.612Z,56.17
2022-07-27T07:27:39.214Z,55.83
2022-07-27T07:30:07.313Z,55.17
2022-07-27T07:32:34.041Z,55.32
2022-07-27T07:35:03.582Z,55.14
2022-07-27T07:37:33.828Z,55.23
2022-07-27T07:40:12.987Z,55.18
2022-07-27T07:43:00.225Z,54.70
2022-07-27T07:45:28.322Z,54.32
2022-07-27T07:47:55.837Z,54.31
2022-07-27T07:50:23.342Z,54.20
2022-07-27T07:52:51.408Z,54.04
2022-07-27T07:55:26.142Z,53.71
2022-07-27T07:57:53.636Z,53.60
2022-07-27T08:00:21.151Z,53.59
2022-07-27T08:02:49.878Z,53.66
2022-07-27T08:05:16.926Z,53.43
2022-07-27T08:07:44.811Z,53.00
2022-07-27T08:10:13.125Z,53.10
2022-07-27T08:12:42.458Z,53.21
2022-07-27T08:15:10.057Z,52.52
2022-07-27T08:17:36.668Z,52.44
2022-07-27T08:20:04.917Z,52.24
2022-07-27T08:22:33.471Z,52.32
2022-07-27T08:25:00.171Z,52.20
2022-07-27T08:27:26.787Z,52.15
2022-07-27T08:29:53.454Z,51.94
2022-07-27T08:32:20.200Z,51.42
2022-07-27T08:34:46.975Z,51.46
2022-07-27T08:37:15.746Z,51.56
2022-07-27T08:40:37.434Z,51.36
2022-07-27T08:42:30.089Z,50.97
2022-07-27T08:44:58.139Z,50.71
2022-07-27T08:47:25.727Z,51.17
2022-07-27T08:49:53.004Z,50.64
2022-07-27T08:57:13.349Z,49.99
2022-07-27T08:59:39.937Z,49.53
2022-07-27T09:02:10.992Z,49.29
2022-07-27T09:04:40.295Z,48.27
2022-07-27T09:07:07.193Z,47.74
2022-07-27T09:09:46.987Z,47.58
2022-07-27T09:12:13.737Z,46.95
2022-07-27T09:14:41.774Z,47.09
2022-07-27T09:20:18.853Z,46.82
2022-07-27T09:22:52.458Z,46.08
2022-07-27T09:25:45.300Z,46.03
2022-07-27T09:28:11.677Z,45.80
2022-07-27T09:30:43.154Z,45.27
2022-07-27T09:33:09.911Z,45.07
2022-07-27T09:35:36.709Z,45.05
2022-07-27T09:38:24.308Z,44.33
2022-07-27T09:41:02.539Z,44.32
2022-07-27T09:46:17.004Z,43.39
2022-07-27T09:48:43.700Z,43.47
2022-07-27T09:51:57.526Z,43.13
2022-07-27T09:54:00.160Z,42.71
2022-07-27T09:56:31.362Z,43.38
2022-07-27T09:59:02.704Z,42.74
2022-07-27T10:01:33.166Z,42.58
2022-07-27T10:04:03.157Z,41.74
2022-07-27T10:06:38.965Z,42.37
2022-07-27T10:09:14.922Z,41.35
2022-07-27T10:11:41.821Z,41.13
2022-07-27T10:14:08.404Z,40.32
2022-07-27T10:16:36.413Z,39.27
2022-07-27T10:19:07.912Z,39.98
2022-07-27T10:21:38.892Z,41.13
2022-07-27T10:24:13.707Z,41.22
2022-07-27T10:26:42.853Z,41.49
2022-07-27T10:29:17.869Z,42.44
2022-07-27T10:31:53.584Z,42.40
2022-07-27T10:34:38.355Z,42.72
2022-07-27T10:37:09.201Z,42.08
2022-07-27T10:39:39.624Z,40.99
2022-07-27T10:42:29.714Z,38.03
2022-07-27T10:45:00.589Z,37.59
2022-07-27T10:47:28.747Z,37.89
2022-07-27T10:50:16.975Z,38.09
2022-07-27T10:52:48.251Z,37.20
2022-07-27T10:55:30.209Z,35.94
2022-07-27T10:58:09.793Z,34.72
2022-07-27T11:00:55.066Z,35.18
2022-07-27T11:03:24.942Z,36.48
2022-07-27T11:06:14.499Z,36.94
2022-07-27T11:09:08.550Z,37.86
2022-07-27T11:11:37.557Z,38.13
2022-07-27T11:14:04.318Z,38.63
2022-07-27T11:16:31.181Z,38.97
2022-07-27T11:19:01.609Z,38.64
2022-07-27T11:21:30.890Z,37.10
2022-07-27T11:24:05.933Z,35.99
2022-07-27T11:26:41.974Z,35.17
2022-07-27T11:29:14.110Z,33.82
2022-07-27T11:31:59.195Z,33.82
2022-07-27T11:34:35.802Z,33.92
2022-07-27T11:37:11.911Z,33.91
2022-07-27T11:42:37.172Z,33.83
2022-07-27T11:45:05.032Z,33.09
2022-07-27T11:47:34.039Z,32.68
2022-07-27T11:50:08.517Z,32.53
2022-07-27T11:52:35.257Z,32.77
2022-07-27T11:55:02.038Z,33.20
2022-07-27T11:57:33.906Z,33.48
2022-07-27T12:00:00.594Z,34.00
2022-07-27T12:02:28.410Z,34.53
2022-07-27T12:05:02.101Z,35.28
2022-07-27T12:07:31.706Z,35.01
2022-07-27T12:10:02.120Z,35.71
2022-07-27T12:12:33.637Z,36.36
2022-07-27T12:18:04.771Z,36.98
2022-07-27T12:20:33.707Z,37.07
2022-07-27T12:23:06.514Z,37.08
2022-07-27T12:25:34.424Z,35.94
2022-07-27T12:28:02.362Z,35.77
2022-07-27T12:30:28.920Z,35.53
2022-07-27T12:32:55.836Z,35.48
2022-07-27T12:35:32.782Z,35.75
2022-07-27T12:38:06.260Z,35.90
2022-07-27T12:40:34.754Z,35.80
2022-07-27T12:43:04.264Z,34.78
2022-07-27T12:45:34.318Z,35.11
2022-07-27T12:48:11.560Z,35.02
2022-07-27T12:50:41.110Z,35.65
2022-07-27T12:53:09.507Z,35.54
2022-07-27T12:55:37.184Z,34.81
2022-07-27T12:58:03.928Z,34.63
2022-07-27T13:00:34.009Z,34.92
2022-07-27T13:03:02.222Z,34.99
2022-07-27T13:05:28.968Z,35.25
2022-07-27T13:07:55.791Z,34.91
2022-07-27T13:10:22.612Z,34.22
2022-07-27T13:12:50.214Z,33.44
2022-07-27T13:15:18.330Z,31.46
2022-07-27T13:17:46.162Z,30.43
2022-07-27T13:20:14.158Z,30.37
2022-07-27T13:22:41.847Z,30.67
2022-07-27T13:25:16.509Z,30.16
2022-07-27T13:27:45.332Z,30.18
2022-07-27T13:30:13.494Z,29.77
2022-07-27T13:32:41.246Z,29.52
2022-07-27T13:35:09.394Z,30.07
2022-07-27T13:37:36.191Z,31.41
2022-07-27T13:40:04.517Z,31.11
2022-07-27T13:42:31.359Z,30.61
2022-07-27T13:45:08.778Z,30.86
2022-07-27T13:47:37.092Z,31.56
2022-07-27T13:50:04.567Z,31.90
2022-07-27T13:52:31.170Z,31.82
2022-07-27T13:54:57.751Z,30.43
2022-07-27T13:57:24.375Z,30.10
2022-07-27T13:59:51.026Z,29.67
2022-07-27T14:02:20.658Z,29.04
2022-07-27T14:04:49.901Z,29.66
2022-07-27T14:07:17.062Z,28.54
2022-07-27T14:10:02.467Z,28.17
2022-07-27T14:12:29.281Z,29.21
2022-07-27T14:14:55.892Z,29.44
2022-07-27T14:17:22.983Z,29.59
2022-07-27T14:19:49.611Z,30.55
2022-07-27T14:22:16.232Z,31.31
2022-07-27T14:24:43.325Z,31.13
2022-07-27T14:27:10.232Z,30.39
2022-07-27T14:29:36.852Z,30.09
2022-07-27T14:32:04.080Z,29.64
2022-07-27T14:34:30.862Z,29.95
2022-07-27T14:36:57.508Z,29.08
2022-07-27T14:39:24.170Z,28.84
2022-07-27T14:41:51.024Z,28.23
2022-07-27T14:44:18.705Z,28.07
2022-07-27T14:46:46.300Z,28.51
2022-07-27T14:49:14.612Z,29.10
2022-07-27T14:51:41.291Z,30.46
2022-07-27T14:54:08.341Z,30.97
2022-07-27T14:56:36.630Z,30.55
2022-07-27T14:59:04.297Z,29.61
2022-07-27T15:01:31.843Z,29.40
2022-07-27T15:03:58.582Z,29.54
2022-07-27T15:06:25.266Z,30.03
2022-07-27T15:08:51.982Z,30.35
2022-07-27T15:11:18.678Z,30.69
2022-07-27T15:13:45.325Z,30.97
2022-07-27T15:16:12.168Z,31.02
2022-07-27T15:18:39.226Z,30.55
2022-07-27T15:21:13.448Z,30.48
2022-07-27T15:23:42.282Z,29.95
2022-07-27T15:26:08.935Z,30.03
2022-07-27T15:28:36.476Z,30.17
2022-07-27T15:31:03.673Z,29.41
2022-07-27T15:33:30.640Z,29.40
2022-07-27T15:35:57.397Z,29.98
2022-07-27T15:38:24.152Z,30.16
2022-07-27T15:40:50.794Z,30.48
2022-07-27T15:43:18.319Z,30.24
2022-07-27T15:45:51.644Z,30.07
2022-07-27T15:48:20.314Z,29.81
2022-07-27T15:50:50.558Z,29.61
2022-07-27T15:53:18.712Z,29.34
2022-07-27T15:55:45.559Z,28.91
2022-07-27T15:58:17.741Z,28.85
2022-07-27T16:00:45.758Z,29.11
2022-07-27T16:03:15.311Z,29.58
2022-07-27T16:05:47.515Z,29.07
2022-07-27T16:08:15.736Z,29.50
2022-07-27T16:10:43.387Z,29.41
2022-07-27T16:13:15.152Z,29.59
2022-07-27T16:16:00.915Z,30.28
2022-07-27T16:18:28.082Z,30.46
2022-07-27T16:20:55.198Z,30.35
2022-07-27T16:23:22.545Z,29.78
2022-07-27T16:26:07.905Z,29.96
2022-07-27T16:28:38.782Z,30.18
2022-07-27T16:31:07.570Z,30.85
2022-07-27T16:33:34.342Z,30.95
2022-07-27T16:36:00.973Z,31.15
2022-07-27T16:38:27.918Z,31.29
2022-07-27T16:40:54.774Z,31.36
2022-07-27T16:43:21.352Z,31.78
2022-07-27T16:45:47.962Z,32.00
2022-07-27T16:48:14.594Z,32.13
2022-07-27T16:50:41.231Z,32.21
2022-07-27T16:53:07.835Z,33.06
2022-07-27T16:55:34.515Z,32.85
2022-07-27T16:58:01.085Z,32.58
2022-07-27T17:00:27.760Z,32.49
2022-07-27T17:02:54.961Z,32.44
2022-07-27T17:05:21.909Z,32.70
2022-07-27T17:07:51.117Z,32.77
2022-07-27T17:10:26.471Z,32.18
2022-07-27T17:12:54.037Z,32.02
2022-07-27T17:15:22.487Z,32.08
2022-07-27T17:17:49.426Z,32.26
2022-07-27T17:20:16.178Z,32.78
2022-07-27T17:22:59.673Z,32.91
2022-07-27T17:25:26.328Z,32.98
2022-07-27T17:27:52.930Z,32.84
2022-07-27T17:30:19.628Z,32.95
2022-07-27T17:32:46.396Z,32.92
2022-07-27T17:35:13.041Z,32.60
2022-07-27T17:38:04.456Z,32.83
2022-07-27T17:40:26.244Z,33.28
2022-07-27T17:42:53.294Z,33.55
2022-07-27T17:45:19.937Z,33.92
2022-07-27T17:47:46.510Z,33.91
2022-07-27T17:50:13.231Z,33.88
2022-07-27T17:52:41.422Z,34.61
2022-07-27T17:55:09.221Z,35.06
2022-07-27T17:57:35.893Z,34.52
2022-07-27T18:00:05.296Z,32.82
2022-07-27T18:02:31.934Z,30.93
2022-07-27T18:04:58.604Z,30.15
2022-07-27T18:07:25.218Z,30.43
2022-07-27T18:09:51.842Z,31.76
2022-07-27T18:12:21.577Z,32.57
2022-07-27T18:15:08.081Z,33.51
2022-07-27T18:17:39.216Z,34.72
2022-07-27T18:20:10.501Z,34.62
2022-07-27T18:22:38.659Z,35.03
2022-07-27T18:25:07.020Z,35.75
2022-07-27T18:27:35.379Z,35.95
2022-07-27T18:30:04.432Z,36.65
2022-07-27T18:32:31.284Z,36.95
2022-07-27T18:34:57.884Z,37.08
2022-07-27T18:37:24.450Z,37.40
2022-07-27T18:39:51.049Z,37.64
2022-07-27T18:42:17.696Z,37.85
2022-07-27T18:44:44.325Z,37.80
2022-07-27T18:47:10.943Z,38.12
2022-07-27T18:49:37.636Z,38.50
2022-07-27T18:52:05.112Z,38.49
2022-07-27T18:54:31.768Z,38.54
2022-07-27T18:56:58.375Z,38.55
2022-07-27T18:59:25.055Z,38.89
2022-07-27T19:01:51.750Z,39.36
2022-07-27T19:04:18.350Z,39.42
2022-07-27T19:06:45.144Z,39.71
2022-07-27T19:09:13.290Z,39.76
2022-07-27T19:11:40.282Z,39.79
2022-07-27T19:14:07.359Z,40.11
2022-07-27T19:16:37.066Z,40.23
2022-07-27T19:19:05.877Z,40.33
2022-07-27T19:21:34.348Z,40.57
2022-07-27T19:24:01.120Z,40.71
2022-07-27T19:26:27.708Z,41.01
2022-07-27T19:28:54.284Z,41.19
2022-07-27T19:31:22.838Z,41.33
2022-07-27T19:33:51.138Z,41.56
2022-07-27T19:36:18.463Z,41.73
2022-07-27T19:38:45.078Z,41.80
2022-07-27T19:41:11.682Z,41.88
2022-07-27T19:43:38.356Z,42.00
2022-07-27T19:46:05.412Z,42.10
2022-07-27T19:48:32.320Z,42.07
2022-07-27T19:51:06.375Z,42.36
2022-07-27T19:53:35.472Z,42.45
2022-07-27T19:56:02.748Z,42.93
2022-07-27T19:58:29.731Z,43.16
2022-07-27T20:00:56.540Z,43.32
2022-07-27T20:03:23.486Z,43.49
2022-07-27T20:05:50.197Z,43.57
2022-07-27T20:08:16.980Z,43.89
2022-07-27T20:10:44.146Z,43.91
2022-07-27T20:13:10.948Z,44.15
2022-07-27T20:15:37.694Z,44.58
2022-07-27T20:18:04.609Z,44.68
2022-07-27T20:20:31.716Z,45.03
2022-07-27T20:22:58.553Z,44.95
2022-07-27T20:25:25.924Z,45.38
2022-07-27T20:27:52.847Z,45.56
2022-07-27T20:30:20.065Z,45.63
2022-07-27T20:32:50.303Z,45.71
2022-07-27T20:35:17.225Z,45.75
2022-07-27T20:37:44.952Z,46.02
2022-07-27T20:40:12.809Z,45.87
2022-07-27T20:42:41.454Z,46.31
2022-07-27T20:45:10.270Z,46.21
2022-07-27T20:47:38.414Z,46.03
2022-07-27T20:50:09.854Z,46.18
2022-07-27T20:52:37.392Z,46.40
2022-07-27T20:55:06.019Z,46.56
2022-07-27T20:57:32.652Z,46.50
2022-07-27T20:59:59.353Z,46.67
2022-07-27T21:02:26.129Z,46.73
2022-07-27T21:04:54.916Z,46.84
2022-07-27T21:07:21.642Z,47.07
2022-07-27T21:09:48.713Z,47.18
2022-07-27T21:12:15.526Z,47.25
2022-07-27T21:14:42.849Z,47.26
2022-07-27T21:17:09.679Z,47.16
2022-07-27T21:19:36.675Z,47.29
2022-07-27T21:22:03.416Z,47.54
2022-07-27T21:24:30.035Z,47.64
2022-07-27T21:26:59.806Z,47.58
2022-07-27T21:29:31.682Z,47.80
2022-07-27T21:31:58.703Z,47.98
2022-07-27T21:34:25.305Z,47.92
2022-07-27T21:36:51.976Z,47.69
2022-07-27T21:39:18.798Z,48.32
2022-07-27T21:41:45.624Z,48.20
2022-07-27T21:44:12.449Z,48.25
2022-07-27T21:46:39.334Z,48.36
2022-07-27T21:49:06.125Z,48.09
2022-07-27T21:51:32.800Z,47.77
2022-07-27T21:53:59.461Z,48.30
2022-07-27T21:56:26.436Z,47.76
2022-07-27T21:58:53.042Z,47.85
2022-07-27T22:01:19.796Z,47.89
2022-07-27T22:03:47.105Z,47.87
2022-07-27T22:06:13.782Z,47.88
2022-07-27T22:08:40.404Z,47.97
2022-07-27T22:11:07.326Z,47.95
2022-07-27T22:13:33.981Z,47.47
2022-07-27T22:16:01.136Z,47.46
2022-07-27T22:18:28.807Z,47.26
2022-07-27T22:20:55.972Z,47.57
2022-07-27T22:23:23.126Z,47.54
2022-07-27T22:25:50.008Z,47.50
2022-07-27T22:28:16.602Z,47.61
2022-07-27T22:30:43.233Z,47.44
2022-07-27T22:33:29.809Z,47.54
2022-07-27T22:35:57.703Z,47.49
2022-07-27T22:38:24.469Z,47.24
2022-07-27T22:40:55.386Z,47.29
2022-07-27T22:43:22.518Z,47.45
2022-07-27T22:45:49.922Z,47.76
2022-07-27T22:48:16.634Z,47.80
2022-07-27T22:50:44.513Z,47.33
2022-07-27T22:53:11.621Z,47.94
2022-07-27T22:55:38.880Z,47.90
2022-07-27T22:58:05.545Z,47.87
2022-07-27T23:00:32.268Z,48.03
2022-07-27T23:02:59.258Z,48.13
2022-07-27T23:05:26.045Z,48.09
2022-07-27T23:07:52.674Z,48.01
2022-07-27T23:10:37.938Z,48.25
2022-07-27T23:13:04.530Z,48.02
2022-07-27T23:15:31.456Z,48.19
2022-07-27T23:17:58.183Z,48.06
2022-07-27T23:20:24.753Z,48.16
2022-07-27T23:22:52.613Z,48.36
2022-07-27T23:25:19.973Z,48.73
2022-07-27T23:27:49.408Z,48.77
2022-07-27T23:30:16.053Z,49.01
2022-07-27T23:32:42.644Z,48.81
2022-07-27T23:35:09.562Z,48.83
2022-07-27T23:37:36.598Z,48.88
2022-07-27T23:40:05.026Z,49.24
2022-07-27T23:42:31.631Z,49.44
2022-07-27T23:44:58.280Z,49.09
2022-07-27T23:47:24.866Z,49.32
2022-07-27T23:49:51.509Z,49.51
2022-07-27T23:52:18.192Z,49.67
2022-07-27T23:54:45.148Z,49.55
2022-07-27T23:57:11.834Z,49.88
2022-07-27T23:59:38.766Z,50.17
